sensor_id;sensor_type;location;lat;lon;timestamp;P1;durP1;ratioP1;P2;durP2;ratioP2
15061;SDS011;7630;50.306;8.566;2022-09-16T00:00:53;7.53;;;4.43;;
15061;SDS011;7630;50.306;8.566;2022-09-16T00:04:54;4.10;;;2.77;;
15061;SDS011;7630;50.306;8.566;2022-09-16T00:08:57;4.87;;;2.93;;
15061;SDS011;7630;50.306;8.566;2022-09-16T00:13:00;4.80;;;2.70;;
15061;SDS011;7630;50.306;8.566;2022-09-16T00:17:01;5.47;;;3.13;;
15061;SDS011;7630;50.306;8.566;2022-09-16T00:21:05;4.40;;;2.80;;
15061;SDS011;7630;50.306;8.566;2022-09-16T00:25:09;3.47;;;2.40;;
15061;SDS011;7630;50.306;8.566;2022-09-16T00:29:10;4.63;;;2.73;;
15061;SDS011;7630;50.306;8.566;2022-09-16T00:33:11;9.27;;;3.23;;
15061;SDS011;7630;50.306;8.566;2022-09-16T00:37:12;3.13;;;2.60;;
15061;SDS011;7630;50.306;8.566;2022-09-16T00:41:15;6.17;;;2.77;;
15061;SDS011;7630;50.306;8.566;2022-09-16T00:45:22;5.17;;;2.77;;
15061;SDS011;7630;50.306;8.566;2022-09-16T00:49:27;7.63;;;2.30;;
15061;SDS011;7630;50.306;8.566;2022-09-16T00:53:33;2.13;;;2.00;;
15061;SDS011;7630;50.306;8.566;2022-09-16T00:57:37;6.73;;;2.90;;
15061;SDS011;7630;50.306;8.566;2022-09-16T01:01:40;2.70;;;2.50;;
15061;SDS011;7630;50.306;8.566;2022-09-16T01:05:44;9.05;;;2.92;;
15061;SDS011;7630;50.306;8.566;2022-09-16T01:09:46;5.53;;;2.47;;
15061;SDS011;7630;50.306;8.566;2022-09-16T01:13:47;4.33;;;2.20;;
15061;SDS011;7630;50.306;8.566;2022-09-16T01:31:14;6.10;;;2.60;;
15061;SDS011;7630;50.306;8.566;2022-09-16T01:43:58;6.07;;;2.37;;
15061;SDS011;7630;50.306;8.566;2022-09-16T01:52:24;6.13;;;2.53;;
15061;SDS011;7630;50.306;8.566;2022-09-16T02:00:32;4.30;;;2.40;;
15061;SDS011;7630;50.306;8.566;2022-09-16T02:04:35;2.90;;;2.13;;
15061;SDS011;7630;50.306;8.566;2022-09-16T02:08:43;5.40;;;2.73;;
15061;SDS011;7630;50.306;8.566;2022-09-16T02:12:47;4.80;;;3.40;;
15061;SDS011;7630;50.306;8.566;2022-09-16T02:16:57;4.43;;;2.70;;
15061;SDS011;7630;50.306;8.566;2022-09-16T02:21:02;2.83;;;2.20;;
15061;SDS011;7630;50.306;8.566;2022-09-16T02:25:05;4.70;;;2.33;;
15061;SDS011;7630;50.306;8.566;2022-09-16T02:29:09;4.43;;;2.20;;
15061;SDS011;7630;50.306;8.566;2022-09-16T02:33:16;4.87;;;2.27;;
15061;SDS011;7630;50.306;8.566;2022-09-16T02:37:24;5.27;;;2.37;;
15061;SDS011;7630;50.306;8.566;2022-09-16T02:41:23;6.30;;;2.57;;
15061;SDS011;7630;50.306;8.566;2022-09-16T02:45:25;2.77;;;2.57;;
15061;SDS011;7630;50.306;8.566;2022-09-16T02:49:39;2.83;;;2.13;;
15061;SDS011;7630;50.306;8.566;2022-09-16T02:53:49;9.30;;;3.63;;
15061;SDS011;7630;50.306;8.566;2022-09-16T02:57:48;6.67;;;2.87;;
15061;SDS011;7630;50.306;8.566;2022-09-16T03:01:50;6.97;;;2.90;;
15061;SDS011;7630;50.306;8.566;2022-09-16T03:06:25;4.67;;;2.47;;
15061;SDS011;7630;50.306;8.566;2022-09-16T03:10:08;6.23;;;2.70;;
15061;SDS011;7630;50.306;8.566;2022-09-16T03:18:27;7.17;;;3.57;;
15061;SDS011;7630;50.306;8.566;2022-09-16T03:27:07;9.57;;;3.63;;
15061;SDS011;7630;50.306;8.566;2022-09-16T03:31:10;3.37;;;2.20;;
15061;SDS011;7630;50.306;8.566;2022-09-16T03:39:33;6.73;;;2.20;;
15061;SDS011;7630;50.306;8.566;2022-09-16T03:43:36;7.47;;;3.57;;
15061;SDS011;7630;50.306;8.566;2022-09-16T03:47:37;4.13;;;3.00;;
15061;SDS011;7630;50.306;8.566;2022-09-16T03:51:38;6.33;;;2.57;;
15061;SDS011;7630;50.306;8.566;2022-09-16T03:55:40;4.20;;;2.47;;
15061;SDS011;7630;50.306;8.566;2022-09-16T03:59:40;9.20;;;2.43;;
15061;SDS011;7630;50.306;8.566;2022-09-16T04:03:41;4.93;;;2.47;;
15061;SDS011;7630;50.306;8.566;2022-09-16T04:07:42;8.67;;;3.20;;
15061;SDS011;7630;50.306;8.566;2022-09-16T04:11:43;3.13;;;2.53;;
15061;SDS011;7630;50.306;8.566;2022-09-16T04:15:45;5.67;;;3.40;;
15061;SDS011;7630;50.306;8.566;2022-09-16T04:19:46;7.30;;;2.37;;
15061;SDS011;7630;50.306;8.566;2022-09-16T04:23:47;6.90;;;2.27;;
15061;SDS011;7630;50.306;8.566;2022-09-16T04:27:49;7.87;;;2.00;;
15061;SDS011;7630;50.306;8.566;2022-09-16T04:31:50;7.27;;;2.50;;
15061;SDS011;7630;50.306;8.566;2022-09-16T04:35:51;3.57;;;2.37;;
15061;SDS011;7630;50.306;8.566;2022-09-16T04:39:52;6.33;;;2.37;;
15061;SDS011;7630;50.306;8.566;2022-09-16T04:43:54;11.70;;;3.13;;
15061;SDS011;7630;50.306;8.566;2022-09-16T04:47:57;5.90;;;2.70;;
15061;SDS011;7630;50.306;8.566;2022-09-16T04:51:59;7.47;;;2.33;;
15061;SDS011;7630;50.306;8.566;2022-09-16T04:56:03;2.93;;;2.40;;
15061;SDS011;7630;50.306;8.566;2022-09-16T05:00:07;8.60;;;2.90;;
15061;SDS011;7630;50.306;8.566;2022-09-16T05:04:09;6.23;;;3.43;;
15061;SDS011;7630;50.306;8.566;2022-09-16T05:08:10;3.87;;;3.03;;
15061;SDS011;7630;50.306;8.566;2022-09-16T05:12:11;4.63;;;2.90;;
15061;SDS011;7630;50.306;8.566;2022-09-16T05:16:16;11.60;;;3.40;;
15061;SDS011;7630;50.306;8.566;2022-09-16T05:20:19;6.23;;;3.13;;
15061;SDS011;7630;50.306;8.566;2022-09-16T05:24:20;6.33;;;4.00;;
15061;SDS011;7630;50.306;8.566;2022-09-16T05:28:21;10.07;;;4.40;;
15061;SDS011;7630;50.306;8.566;2022-09-16T05:32:22;4.93;;;3.40;;
15061;SDS011;7630;50.306;8.566;2022-09-16T05:36:24;5.27;;;4.13;;
15061;SDS011;7630;50.306;8.566;2022-09-16T05:40:27;6.20;;;4.13;;
15061;SDS011;7630;50.306;8.566;2022-09-16T05:44:28;5.23;;;4.50;;
15061;SDS011;7630;50.306;8.566;2022-09-16T05:48:30;14.73;;;7.07;;
15061;SDS011;7630;50.306;8.566;2022-09-16T05:52:31;9.20;;;6.30;;
15061;SDS011;7630;50.306;8.566;2022-09-16T05:56:33;8.10;;;5.70;;
15061;SDS011;7630;50.306;8.566;2022-09-16T06:00:34;7.83;;;4.93;;
15061;SDS011;7630;50.306;8.566;2022-09-16T06:04:35;8.23;;;5.43;;
15061;SDS011;7630;50.306;8.566;2022-09-16T06:08:36;9.27;;;5.47;;
15061;SDS011;7630;50.306;8.566;2022-09-16T06:12:37;7.17;;;4.90;;
15061;SDS011;7630;50.306;8.566;2022-09-16T06:16:38;10.60;;;4.53;;
15061;SDS011;7630;50.306;8.566;2022-09-16T06:20:40;8.93;;;5.30;;
15061;SDS011;7630;50.306;8.566;2022-09-16T06:24:41;9.17;;;4.83;;
15061;SDS011;7630;50.306;8.566;2022-09-16T06:28:42;13.03;;;5.10;;
15061;SDS011;7630;50.306;8.566;2022-09-16T06:32:43;6.20;;;4.17;;
15061;SDS011;7630;50.306;8.566;2022-09-16T06:36:44;12.07;;;3.90;;
15061;SDS011;7630;50.306;8.566;2022-09-16T06:40:46;6.63;;;3.77;;
15061;SDS011;7630;50.306;8.566;2022-09-16T06:44:49;12.20;;;5.27;;
15061;SDS011;7630;50.306;8.566;2022-09-16T06:48:50;3.40;;;2.73;;
15061;SDS011;7630;50.306;8.566;2022-09-16T06:52:54;11.47;;;4.17;;
15061;SDS011;7630;50.306;8.566;2022-09-16T06:56:54;8.53;;;3.60;;
15061;SDS011;7630;50.306;8.566;2022-09-16T07:00:55;4.23;;;2.70;;
15061;SDS011;7630;50.306;8.566;2022-09-16T07:04:57;5.53;;;2.93;;
15061;SDS011;7630;50.306;8.566;2022-09-16T07:08:57;6.00;;;3.03;;
15061;SDS011;7630;50.306;8.566;2022-09-16T07:12:59;8.43;;;2.73;;
15061;SDS011;7630;50.306;8.566;2022-09-16T07:17:00;4.77;;;2.63;;
15061;SDS011;7630;50.306;8.566;2022-09-16T07:25:12;9.10;;;5.00;;
15061;SDS011;7630;50.306;8.566;2022-09-16T07:29:14;12.33;;;4.80;;
15061;SDS011;7630;50.306;8.566;2022-09-16T07:33:17;5.50;;;4.17;;
15061;SDS011;7630;50.306;8.566;2022-09-16T07:37:18;6.83;;;4.60;;
15061;SDS011;7630;50.306;8.566;2022-09-16T07:41:21;8.33;;;5.00;;
15061;SDS011;7630;50.306;8.566;2022-09-16T07:45:23;7.67;;;4.60;;
15061;SDS011;7630;50.306;8.566;2022-09-16T07:49:25;9.10;;;4.30;;
15061;SDS011;7630;50.306;8.566;2022-09-16T07:53:27;4.83;;;4.13;;
15061;SDS011;7630;50.306;8.566;2022-09-16T07:57:29;5.80;;;4.73;;
15061;SDS011;7630;50.306;8.566;2022-09-16T08:01:31;6.50;;;5.00;;
15061;SDS011;7630;50.306;8.566;2022-09-16T08:05:32;6.87;;;4.40;;
15061;SDS011;7630;50.306;8.566;2022-09-16T08:09:35;7.50;;;5.53;;
15061;SDS011;7630;50.306;8.566;2022-09-16T08:13:40;8.70;;;5.50;;
15061;SDS011;7630;50.306;8.566;2022-09-16T08:17:43;11.43;;;5.47;;
15061;SDS011;7630;50.306;8.566;2022-09-16T08:21:46;6.90;;;3.27;;
15061;SDS011;7630;50.306;8.566;2022-09-16T08:25:57;5.17;;;2.90;;
15061;SDS011;7630;50.306;8.566;2022-09-16T08:34:05;5.60;;;2.47;;
15061;SDS011;7630;50.306;8.566;2022-09-16T08:38:06;6.13;;;2.90;;
15061;SDS011;7630;50.306;8.566;2022-09-16T08:46:41;5.40;;;2.93;;
15061;SDS011;7630;50.306;8.566;2022-09-16T08:50:50;3.27;;;2.50;;
15061;SDS011;7630;50.306;8.566;2022-09-16T08:54:53;4.63;;;2.40;;
15061;SDS011;7630;50.306;8.566;2022-09-16T08:58:57;2.77;;;2.37;;
15061;SDS011;7630;50.306;8.566;2022-09-16T09:03:06;7.53;;;2.27;;
15061;SDS011;7630;50.306;8.566;2022-09-16T09:15:49;3.57;;;1.93;;
15061;SDS011;7630;50.306;8.566;2022-09-16T09:24:30;5.50;;;1.70;;
15061;SDS011;7630;50.306;8.566;2022-09-16T09:41:48;4.77;;;2.47;;
15061;SDS011;7630;50.306;8.566;2022-09-16T09:46:04;4.07;;;2.73;;
15061;SDS011;7630;50.306;8.566;2022-09-16T09:50:11;6.60;;;2.60;;
15061;SDS011;7630;50.306;8.566;2022-09-16T10:02:35;6.43;;;1.73;;
15061;SDS011;7630;50.306;8.566;2022-09-16T10:06:39;5.73;;;1.57;;
15061;SDS011;7630;50.306;8.566;2022-09-16T10:10:46;7.00;;;2.13;;
15061;SDS011;7630;50.306;8.566;2022-09-16T10:14:50;2.50;;;1.40;;
15061;SDS011;7630;50.306;8.566;2022-09-16T10:18:53;5.37;;;1.57;;
15061;SDS011;7630;50.306;8.566;2022-09-16T10:23:09;1.60;;;1.50;;
15061;SDS011;7630;50.306;8.566;2022-09-16T10:31:29;2.30;;;1.70;;
15061;SDS011;7630;50.306;8.566;2022-09-16T10:35:34;2.70;;;1.30;;
15061;SDS011;7630;50.306;8.566;2022-09-16T10:39:38;2.43;;;1.80;;
15061;SDS011;7630;50.306;8.566;2022-09-16T10:43:51;1.57;;;1.40;;
15061;SDS011;7630;50.306;8.566;2022-09-16T10:47:56;2.17;;;1.33;;
15061;SDS011;7630;50.306;8.566;2022-09-16T10:52:11;4.40;;;1.77;;
15061;SDS011;7630;50.306;8.566;2022-09-16T10:56:17;3.00;;;2.70;;
15061;SDS011;7630;50.306;8.566;2022-09-16T11:22:07;3.53;;;1.60;;
15061;SDS011;7630;50.306;8.566;2022-09-16T11:31:09;3.03;;;2.23;;
15061;SDS011;7630;50.306;8.566;2022-09-16T11:39:44;1.87;;;1.67;;
15061;SDS011;7630;50.306;8.566;2022-09-16T11:48:24;3.83;;;1.87;;
15061;SDS011;7630;50.306;8.566;2022-09-16T11:56:58;3.70;;;2.40;;
15061;SDS011;7630;50.306;8.566;2022-09-16T12:01:05;11.53;;;7.63;;
15061;SDS011;7630;50.306;8.566;2022-09-16T12:05:20;11.67;;;9.43;;
15061;SDS011;7630;50.306;8.566;2022-09-16T12:09:35;2.90;;;2.07;;
15061;SDS011;7630;50.306;8.566;2022-09-16T12:13:57;3.10;;;1.70;;
15061;SDS011;7630;50.306;8.566;2022-09-16T12:22:35;2.70;;;2.50;;
15061;SDS011;7630;50.306;8.566;2022-09-16T12:26:42;1.90;;;1.60;;
15061;SDS011;7630;50.306;8.566;2022-09-16T12:30:46;3.03;;;1.87;;
15061;SDS011;7630;50.306;8.566;2022-09-16T12:34:55;1.87;;;1.60;;
15061;SDS011;7630;50.306;8.566;2022-09-16T12:38:58;2.27;;;2.13;;
15061;SDS011;7630;50.306;8.566;2022-09-16T12:43:07;3.40;;;1.90;;
15061;SDS011;7630;50.306;8.566;2022-09-16T13:00:16;1.27;;;1.13;;
15061;SDS011;7630;50.306;8.566;2022-09-16T13:04:30;1.63;;;1.20;;
15061;SDS011;7630;50.306;8.566;2022-09-16T13:08:31;3.03;;;1.37;;
15061;SDS011;7630;50.306;8.566;2022-09-16T13:12:34;1.97;;;1.17;;
15061;SDS011;7630;50.306;8.566;2022-09-16T13:16:38;4.57;;;1.57;;
15061;SDS011;7630;50.306;8.566;2022-09-16T13:20:39;4.37;;;1.23;;
15061;SDS011;7630;50.306;8.566;2022-09-16T13:24:44;3.17;;;1.87;;
15061;SDS011;7630;50.306;8.566;2022-09-16T13:28:47;1.70;;;1.33;;
15061;SDS011;7630;50.306;8.566;2022-09-16T13:36:56;1.20;;;1.20;;
15061;SDS011;7630;50.306;8.566;2022-09-16T13:40:59;3.33;;;1.20;;
15061;SDS011;7630;50.306;8.566;2022-09-16T13:45:01;1.90;;;1.10;;
15061;SDS011;7630;50.306;8.566;2022-09-16T13:53:10;2.87;;;1.40;;
15061;SDS011;7630;50.306;8.566;2022-09-16T13:57:23;2.37;;;1.43;;
15061;SDS011;7630;50.306;8.566;2022-09-16T14:05:49;2.30;;;1.03;;
15061;SDS011;7630;50.306;8.566;2022-09-16T14:09:59;2.57;;;1.70;;
15061;SDS011;7630;50.306;8.566;2022-09-16T14:14:03;5.03;;;1.50;;
15061;SDS011;7630;50.306;8.566;2022-09-16T14:18:13;1.87;;;1.70;;
15061;SDS011;7630;50.306;8.566;2022-09-16T14:22:21;3.60;;;1.20;;
15061;SDS011;7630;50.306;8.566;2022-09-16T14:26:24;3.17;;;1.20;;
15061;SDS011;7630;50.306;8.566;2022-09-16T14:30:25;1.90;;;1.10;;
15061;SDS011;7630;50.306;8.566;2022-09-16T14:38:32;1.57;;;1.23;;
15061;SDS011;7630;50.306;8.566;2022-09-16T14:42:37;1.63;;;0.97;;
15061;SDS011;7630;50.306;8.566;2022-09-16T14:46:42;1.73;;;1.00;;
15061;SDS011;7630;50.306;8.566;2022-09-16T14:50:46;2.13;;;1.10;;
15061;SDS011;7630;50.306;8.566;2022-09-16T14:54:49;1.97;;;1.30;;
15061;SDS011;7630;50.306;8.566;2022-09-16T14:58:51;1.97;;;1.77;;
15061;SDS011;7630;50.306;8.566;2022-09-16T15:02:55;1.50;;;1.50;;
15061;SDS011;7630;50.306;8.566;2022-09-16T15:07:21;3.83;;;1.90;;
15061;SDS011;7630;50.306;8.566;2022-09-16T15:11:31;2.37;;;1.80;;
15061;SDS011;7630;50.306;8.566;2022-09-16T15:15:37;5.03;;;3.20;;
15061;SDS011;7630;50.306;8.566;2022-09-16T15:19:42;10.53;;;2.90;;
15061;SDS011;7630;50.306;8.566;2022-09-16T15:23:47;2.03;;;1.93;;
15061;SDS011;7630;50.306;8.566;2022-09-16T15:27:50;1.90;;;1.80;;
15061;SDS011;7630;50.306;8.566;2022-09-16T15:31:51;2.47;;;1.83;;
15061;SDS011;7630;50.306;8.566;2022-09-16T15:35:53;1.93;;;1.57;;
15061;SDS011;7630;50.306;8.566;2022-09-16T15:39:54;1.30;;;1.30;;
15061;SDS011;7630;50.306;8.566;2022-09-16T15:43:55;2.03;;;1.93;;
15061;SDS011;7630;50.306;8.566;2022-09-16T15:48:00;4.10;;;1.87;;
15061;SDS011;7630;50.306;8.566;2022-09-16T15:52:05;1.80;;;1.70;;
15061;SDS011;7630;50.306;8.566;2022-09-16T16:00:28;1.90;;;1.80;;
15061;SDS011;7630;50.306;8.566;2022-09-16T16:04:33;4.30;;;1.70;;
15061;SDS011;7630;50.306;8.566;2022-09-16T16:12:49;3.00;;;2.50;;
15061;SDS011;7630;50.306;8.566;2022-09-16T16:16:51;3.63;;;1.30;;
15061;SDS011;7630;50.306;8.566;2022-09-16T16:20:54;2.43;;;2.23;;
15061;SDS011;7630;50.306;8.566;2022-09-16T16:24:55;1.10;;;1.00;;
15061;SDS011;7630;50.306;8.566;2022-09-16T16:28:56;3.27;;;1.50;;
15061;SDS011;7630;50.306;8.566;2022-09-16T16:32:57;2.80;;;1.73;;
15061;SDS011;7630;50.306;8.566;2022-09-16T16:36:59;3.00;;;1.57;;
15061;SDS011;7630;50.306;8.566;2022-09-16T16:41:00;1.40;;;1.30;;
15061;SDS011;7630;50.306;8.566;2022-09-16T16:45:01;1.63;;;1.33;;
15061;SDS011;7630;50.306;8.566;2022-09-16T16:49:03;4.43;;;1.13;;
15061;SDS011;7630;50.306;8.566;2022-09-16T16:53:04;1.20;;;1.10;;
15061;SDS011;7630;50.306;8.566;2022-09-16T16:57:06;1.47;;;1.17;;
15061;SDS011;7630;50.306;8.566;2022-09-16T17:05:16;1.37;;;1.03;;
15061;SDS011;7630;50.306;8.566;2022-09-16T17:09:17;1.93;;;1.63;;
15061;SDS011;7630;50.306;8.566;2022-09-16T17:13:18;2.20;;;0.87;;
15061;SDS011;7630;50.306;8.566;2022-09-16T17:17:19;2.97;;;1.20;;
15061;SDS011;7630;50.306;8.566;2022-09-16T17:21:22;2.00;;;1.10;;
15061;SDS011;7630;50.306;8.566;2022-09-16T17:25:24;1.77;;;1.00;;
15061;SDS011;7630;50.306;8.566;2022-09-16T17:29:25;2.33;;;1.30;;
15061;SDS011;7630;50.306;8.566;2022-09-16T17:33:27;4.27;;;1.47;;
15061;SDS011;7630;50.306;8.566;2022-09-16T17:37:28;2.53;;;1.20;;
15061;SDS011;7630;50.306;8.566;2022-09-16T17:41:29;1.57;;;1.27;;
15061;SDS011;7630;50.306;8.566;2022-09-16T17:45:31;2.63;;;1.40;;
15061;SDS011;7630;50.306;8.566;2022-09-16T17:49:32;3.37;;;1.50;;
15061;SDS011;7630;50.306;8.566;2022-09-16T17:53:34;1.87;;;1.40;;
15061;SDS011;7630;50.306;8.566;2022-09-16T17:57:36;1.80;;;1.50;;
15061;SDS011;7630;50.306;8.566;2022-09-16T18:01:38;4.33;;;2.40;;
15061;SDS011;7630;50.306;8.566;2022-09-16T18:05:39;2.27;;;2.07;;
15061;SDS011;7630;50.306;8.566;2022-09-16T18:09:40;2.50;;;2.30;;
15061;SDS011;7630;50.306;8.566;2022-09-16T18:13:41;2.60;;;2.40;;
15061;SDS011;7630;50.306;8.566;2022-09-16T18:17:43;2.33;;;2.13;;
15061;SDS011;7630;50.306;8.566;2022-09-16T18:21:44;1.97;;;1.87;;
15061;SDS011;7630;50.306;8.566;2022-09-16T18:25:46;3.50;;;2.13;;
15061;SDS011;7630;50.306;8.566;2022-09-16T18:29:47;2.97;;;2.17;;
15061;SDS011;7630;50.306;8.566;2022-09-16T18:33:51;4.57;;;2.33;;
15061;SDS011;7630;50.306;8.566;2022-09-16T18:37:53;2.70;;;2.07;;
15061;SDS011;7630;50.306;8.566;2022-09-16T18:41:55;1.73;;;1.60;;
15061;SDS011;7630;50.306;8.566;2022-09-16T18:46:04;2.80;;;2.13;;
15061;SDS011;7630;50.306;8.566;2022-09-16T18:50:13;2.43;;;2.23;;
15061;SDS011;7630;50.306;8.566;2022-09-16T18:54:16;2.13;;;1.67;;
15061;SDS011;7630;50.306;8.566;2022-09-16T18:58:26;2.30;;;1.70;;
15061;SDS011;7630;50.306;8.566;2022-09-16T19:02:28;2.47;;;2.27;;
15061;SDS011;7630;50.306;8.566;2022-09-16T19:06:30;4.17;;;2.43;;
15061;SDS011;7630;50.306;8.566;2022-09-16T19:10:33;3.23;;;2.13;;
15061;SDS011;7630;50.306;8.566;2022-09-16T19:14:34;6.27;;;1.50;;
15061;SDS011;7630;50.306;8.566;2022-09-16T19:18:35;1.87;;;1.47;;
15061;SDS011;7630;50.306;8.566;2022-09-16T19:22:36;1.60;;;1.27;;
15061;SDS011;7630;50.306;8.566;2022-09-16T19:26:37;2.07;;;1.50;;
15061;SDS011;7630;50.306;8.566;2022-09-16T19:30:39;2.47;;;2.23;;
15061;SDS011;7630;50.306;8.566;2022-09-16T19:34:40;4.27;;;1.50;;
15061;SDS011;7630;50.306;8.566;2022-09-16T19:38:41;3.17;;;1.80;;
15061;SDS011;7630;50.306;8.566;2022-09-16T19:42:43;3.40;;;1.87;;
15061;SDS011;7630;50.306;8.566;2022-09-16T19:46:44;4.47;;;1.87;;
15061;SDS011;7630;50.306;8.566;2022-09-16T19:50:50;2.47;;;1.80;;
15061;SDS011;7630;50.306;8.566;2022-09-16T19:54:52;2.90;;;1.67;;
15061;SDS011;7630;50.306;8.566;2022-09-16T19:58:53;3.07;;;2.10;;
15061;SDS011;7630;50.306;8.566;2022-09-16T20:02:55;6.83;;;2.67;;
15061;SDS011;7630;50.306;8.566;2022-09-16T20:06:56;4.60;;;1.73;;
15061;SDS011;7630;50.306;8.566;2022-09-16T20:11:01;3.77;;;1.83;;
15061;SDS011;7630;50.306;8.566;2022-09-16T20:15:03;5.63;;;2.07;;
15061;SDS011;7630;50.306;8.566;2022-09-16T20:19:09;4.85;;;3.08;;
15061;SDS011;7630;50.306;8.566;2022-09-16T20:23:12;3.40;;;1.87;;
15061;SDS011;7630;50.306;8.566;2022-09-16T20:27:13;4.70;;;2.30;;
15061;SDS011;7630;50.306;8.566;2022-09-16T20:31:14;4.37;;;1.57;;
15061;SDS011;7630;50.306;8.566;2022-09-16T20:35:17;3.50;;;1.55;;
15061;SDS011;7630;50.306;8.566;2022-09-16T20:39:19;9.47;;;1.87;;
15061;SDS011;7630;50.306;8.566;2022-09-16T20:43:21;3.27;;;1.90;;
15061;SDS011;7630;50.306;8.566;2022-09-16T20:47:22;3.17;;;1.90;;
15061;SDS011;7630;50.306;8.566;2022-09-16T20:51:26;3.73;;;2.13;;
15061;SDS011;7630;50.306;8.566;2022-09-16T20:55:31;3.40;;;1.83;;
15061;SDS011;7630;50.306;8.566;2022-09-16T20:59:32;3.20;;;2.00;;
15061;SDS011;7630;50.306;8.566;2022-09-16T21:03:33;4.30;;;2.83;;
15061;SDS011;7630;50.306;8.566;2022-09-16T21:07:34;7.17;;;3.23;;
15061;SDS011;7630;50.306;8.566;2022-09-16T21:11:36;4.37;;;3.60;;
15061;SDS011;7630;50.306;8.566;2022-09-16T21:15:40;10.33;;;4.70;;
15061;SDS011;7630;50.306;8.566;2022-09-16T21:19:41;6.00;;;5.50;;
15061;SDS011;7630;50.306;8.566;2022-09-16T21:23:44;8.60;;;6.40;;
15061;SDS011;7630;50.306;8.566;2022-09-16T21:27:46;10.73;;;8.37;;
15061;SDS011;7630;50.306;8.566;2022-09-16T21:31:47;8.87;;;7.97;;
15061;SDS011;7630;50.306;8.566;2022-09-16T21:35:49;8.33;;;7.20;;
15061;SDS011;7630;50.306;8.566;2022-09-16T21:39:51;10.57;;;7.50;;
15061;SDS011;7630;50.306;8.566;2022-09-16T21:43:53;7.73;;;7.03;;
15061;SDS011;7630;50.306;8.566;2022-09-16T21:47:56;10.17;;;7.30;;
15061;SDS011;7630;50.306;8.566;2022-09-16T21:51:57;8.47;;;7.63;;
15061;SDS011;7630;50.306;8.566;2022-09-16T21:56:06;7.90;;;7.10;;
15061;SDS011;7630;50.306;8.566;2022-09-16T22:00:08;10.87;;;7.97;;
15061;SDS011;7630;50.306;8.566;2022-09-16T22:04:30;9.40;;;8.70;;
15061;SDS011;7630;50.306;8.566;2022-09-16T22:08:31;10.10;;;9.07;;
15061;SDS011;7630;50.306;8.566;2022-09-16T22:12:32;9.43;;;8.50;;
15061;SDS011;7630;50.306;8.566;2022-09-16T22:16:34;10.83;;;9.87;;
15061;SDS011;7630;50.306;8.566;2022-09-16T22:20:37;11.10;;;10.00;;
15061;SDS011;7630;50.306;8.566;2022-09-16T22:24:38;10.63;;;9.33;;
15061;SDS011;7630;50.306;8.566;2022-09-16T22:28:39;10.23;;;9.13;;
15061;SDS011;7630;50.306;8.566;2022-09-16T22:32:41;10.07;;;9.07;;
15061;SDS011;7630;50.306;8.566;2022-09-16T22:36:42;15.47;;;10.97;;
15061;SDS011;7630;50.306;8.566;2022-09-16T22:40:43;10.33;;;8.97;;
15061;SDS011;7630;50.306;8.566;2022-09-16T22:44:44;14.43;;;10.00;;
15061;SDS011;7630;50.306;8.566;2022-09-16T22:48:46;11.37;;;10.00;;
15061;SDS011;7630;50.306;8.566;2022-09-16T22:52:48;12.17;;;11.17;;
15061;SDS011;7630;50.306;8.566;2022-09-16T22:56:49;16.77;;;10.20;;
15061;SDS011;7630;50.306;8.566;2022-09-16T23:00:50;10.30;;;9.33;;
15061;SDS011;7630;50.306;8.566;2022-09-16T23:04:51;12.27;;;9.20;;
15061;SDS011;7630;50.306;8.566;2022-09-16T23:08:53;9.93;;;8.93;;
15061;SDS011;7630;50.306;8.566;2022-09-16T23:12:54;18.10;;;9.43;;
15061;SDS011;7630;50.306;8.566;2022-09-16T23:16:57;20.77;;;9.97;;
15061;SDS011;7630;50.306;8.566;2022-09-16T23:20:59;13.17;;;8.47;;
15061;SDS011;7630;50.306;8.566;2022-09-16T23:25:02;10.43;;;8.53;;
15061;SDS011;7630;50.306;8.566;2022-09-16T23:29:04;11.00;;;7.40;;
15061;SDS011;7630;50.306;8.566;2022-09-16T23:33:07;9.73;;;8.10;;
15061;SDS011;7630;50.306;8.566;2022-09-16T23:37:08;10.83;;;8.17;;
15061;SDS011;7630;50.306;8.566;2022-09-16T23:41:14;9.40;;;8.57;;
15061;SDS011;7630;50.306;8.566;2022-09-16T23:45:16;12.50;;;8.67;;
15061;SDS011;7630;50.306;8.566;2022-09-16T23:49:17;9.67;;;7.80;;
15061;SDS011;7630;50.306;8.566;2022-09-16T23:53:20;16.37;;;8.37;;
15061;SDS011;7630;50.306;8.566;2022-09-16T23:57:21;9.13;;;7.30;;
